Franksville, WI

6:22 AM CDT on August 30, 2015 (GMT -0500)
My Observatory 108th & 4-1/2 mile Rd | | Change Station
CLOSE
Current Station
Personal Weather Station
Location: Franksville, WI
Elevation: 810 ft
Nearby Weather Stations

Elev 810 ft 42.79 °N, 88.05 °W | Updated 15 seconds ago

Fog
Fog
65.2 °F
Feels Like 65.2 °F
N
3.3
Wind Variable Wind from NW
Gusts 4.6 mph

Today
High -- | Low -- °F
--% Chance of Precip.
Yesterday
High -- | Low -- °F
Precip. -- in
6:14 AM 7:30 PM
Full, 99% visible
Pressure 30.06 in
Visibility 0.2 miles
Clouds
Dew Point 65 °F
Humidity 100%
Rainfall 0.00 in
Snow Depth Not available.
UV Not available.
Pollen 8.70 out of 12
Air Quality Not available.
Flu Activity Not available.
METAR KRAC 301053Z AUTO 34005KT 1/4SM FG VV002 17/16 A3006 RMK AO2 SLP179 T01720161
Pressure 30.06 in
Visibility 0.2 miles
Clouds
Dew Point 65 °F
Humidity 100%
Rainfall 0.00 in
Snow Depth Not available.
UV Not available.
Pollen 8.70 out of 12
Air Quality Not available.
Flu Activity Not available.
METAR KRAC 301053Z AUTO 34005KT 1/4SM FG VV002 17/16 A3006 RMK AO2 SLP179 T01720161

10-Day Weather Forecast

×

Almanac

Astronomy

Aug. 30, 2015 Rise Set
Actual Time
Civil Twilight
Nautical Twilight
Astronomical Twilight
Moon
Length of Visible Light
Length of Day
Tomorrow will be .
, % of the Moon is Illuminated

Today's Extremes

State Highs State Lows

Community

WunderPhotos

Upload Photos

1,850,929 photos uploaded!

WunderBlogs® & News

Nearby

Air Quality

  Air Quality AQ Index Pollutant
Not available.

Snow Depth

Station Depth Elevation

Earthquake Activity

City Distance Mag. Time & Date
Minimum magnitude displayed is 2.5.

Coastal Water Temperatures

Place Temperature

Stations

Nearby Weather Stations

Station Location Temp. Windchill Dew Point Humidity Wind Precip. Elev Updated Type